Huachuca Terrace, Arizona
Current Conditions -  °F | °C
As of 11:53 AM on Thursday 27 Nov 2014 (Local Time) from KGUP Reporting Station
Clear Clear  
Wind Chill: 52°   Ceiling: Unl
Heat Index: 52°   Visibility: 10mi
Dew Point: 19°   Wind: 0mph
Humidity: 27%   Direction: NA
Pressure: 30.45"   Gusts: NA
Location:  36.1012°N, 109.584°W
Report Text: KGUP 271853Z AUTO 00000KT 10SM CLR 11/M07 A3045 RMK AO2 SLP305 T01111072
Loading
Personal Weather Stations






























Interactive Weather Map New forecast layout! Learn more

10-Day Weather Forecast

Advertisements
Track Severe Weather on mobile